sensor_id;sensor_type;location;lat;lon;timestamp;pressure;altitude;pressure_sealevel;temperature;humidity
36538;BME280;22545;48.892;9.138;2022-09-13T00:01:28;97674.41;;;15.90;100.00
36538;BME280;22545;48.892;9.138;2022-09-13T00:03:54;97677.19;;;15.87;100.00
36538;BME280;22545;48.892;9.138;2022-09-13T00:06:19;97671.91;;;15.89;100.00
36538;BME280;22545;48.892;9.138;2022-09-13T00:08:45;97677.09;;;15.89;100.00
36538;BME280;22545;48.892;9.138;2022-09-13T00:11:14;97676.78;;;15.81;100.00
36538;BME280;22545;48.892;9.138;2022-09-13T00:13:40;97672.53;;;15.80;100.00
36538;BME280;22545;48.892;9.138;2022-09-13T00:16:14;97666.44;;;15.66;100.00
36538;BME280;22545;48.892;9.138;2022-09-13T00:18:40;97656.06;;;15.66;100.00
36538;BME280;22545;48.892;9.138;2022-09-13T00:21:09;97650.56;;;15.71;100.00
36538;BME280;22545;48.892;9.138;2022-09-13T00:23:35;97655.84;;;15.69;100.00
36538;BME280;22545;48.892;9.138;2022-09-13T00:26:02;97654.28;;;15.67;100.00
36538;BME280;22545;48.892;9.138;2022-09-13T00:28:27;97653.84;;;15.60;100.00
36538;BME280;22545;48.892;9.138;2022-09-13T00:30:52;97652.28;;;15.57;100.00
36538;BME280;22545;48.892;9.138;2022-09-13T00:33:17;97660.78;;;15.60;100.00
36538;BME280;22545;48.892;9.138;2022-09-13T00:35:43;97664.53;;;15.55;100.00
36538;BME280;22545;48.892;9.138;2022-09-13T00:38:08;97661.84;;;15.57;100.00
36538;BME280;22545;48.892;9.138;2022-09-13T00:40:36;97657.34;;;15.46;100.00
36538;BME280;22545;48.892;9.138;2022-09-13T00:43:01;97650.69;;;15.42;100.00
36538;BME280;22545;48.892;9.138;2022-09-13T00:45:26;97655.31;;;15.37;100.00
36538;BME280;22545;48.892;9.138;2022-09-13T00:50:22;97643.50;;;15.18;100.00
36538;BME280;22545;48.892;9.138;2022-09-13T00:52:54;97637.91;;;15.12;100.00
36538;BME280;22545;48.892;9.138;2022-09-13T00:55:25;97631.34;;;15.06;100.00
36538;BME280;22545;48.892;9.138;2022-09-13T00:57:52;97628.38;;;14.98;100.00
36538;BME280;22545;48.892;9.138;2022-09-13T01:00:20;97625.78;;;14.98;100.00
36538;BME280;22545;48.892;9.138;2022-09-13T01:02:56;97628.47;;;14.96;100.00
36538;BME280;22545;48.892;9.138;2022-09-13T01:05:24;97625.88;;;14.96;100.00
36538;BME280;22545;48.892;9.138;2022-09-13T01:07:51;97622.47;;;14.96;100.00
36538;BME280;22545;48.892;9.138;2022-09-13T01:10:17;97624.97;;;14.97;100.00
36538;BME280;22545;48.892;9.138;2022-09-13T01:12:50;97631.72;;;15.00;100.00
36538;BME280;22545;48.892;9.138;2022-09-13T01:15:18;97625.78;;;14.98;100.00
36538;BME280;22545;48.892;9.138;2022-09-13T01:17:43;97622.66;;;14.93;100.00
36538;BME280;22545;48.892;9.138;2022-09-13T01:20:09;97627.03;;;14.92;100.00
36538;BME280;22545;48.892;9.138;2022-09-13T01:25:19;97633.69;;;14.82;100.00
36538;BME280;22545;48.892;9.138;2022-09-13T01:52:51;97624.34;;;14.79;100.00
36538;BME280;22545;48.892;9.138;2022-09-13T02:00:27;97630.91;;;14.71;100.00
36538;BME280;22545;48.892;9.138;2022-09-13T02:03:06;97637.41;;;14.63;100.00
36538;BME280;22545;48.892;9.138;2022-09-13T02:05:54;97633.88;;;14.64;100.00
36538;BME280;22545;48.892;9.138;2022-09-13T02:08:23;97630.66;;;14.61;100.00
36538;BME280;22545;48.892;9.138;2022-09-13T02:10:53;97630.66;;;14.61;100.00
36538;BME280;22545;48.892;9.138;2022-09-13T02:13:24;97625.22;;;14.49;100.00
36538;BME280;22545;48.892;9.138;2022-09-13T02:15:55;97621.38;;;14.42;100.00
36538;BME280;22545;48.892;9.138;2022-09-13T02:18:25;97630.78;;;14.43;100.00
36538;BME280;22545;48.892;9.138;2022-09-13T02:20:52;97641.81;;;14.47;100.00
36538;BME280;22545;48.892;9.138;2022-09-13T02:23:27;97647.06;;;14.45;100.00
36538;BME280;22545;48.892;9.138;2022-09-13T02:25:55;97645.41;;;14.44;100.00
36538;BME280;22545;48.892;9.138;2022-09-13T02:28:22;97638.00;;;14.38;100.00
36538;BME280;22545;48.892;9.138;2022-09-13T02:30:51;97633.75;;;14.37;100.00
36538;BME280;22545;48.892;9.138;2022-09-13T02:35:48;97622.84;;;14.32;100.00
36538;BME280;22545;48.892;9.138;2022-09-13T02:38:17;97631.44;;;14.32;100.00
36538;BME280;22545;48.892;9.138;2022-09-13T02:40:45;97637.50;;;14.31;100.00
36538;BME280;22545;48.892;9.138;2022-09-13T02:43:25;97637.31;;;14.34;100.00
36538;BME280;22545;48.892;9.138;2022-09-13T02:48:22;97634.56;;;14.23;100.00
36538;BME280;22545;48.892;9.138;2022-09-13T02:50:59;97633.97;;;14.18;100.00
36538;BME280;22545;48.892;9.138;2022-09-13T02:53:38;97637.88;;;14.11;100.00
36538;BME280;22545;48.892;9.138;2022-09-13T02:58:46;97630.66;;;14.16;100.00
36538;BME280;22545;48.892;9.138;2022-09-13T03:01:12;97627.06;;;14.19;100.00
36538;BME280;22545;48.892;9.138;2022-09-13T03:03:37;97625.75;;;14.11;100.00
36538;BME280;22545;48.892;9.138;2022-09-13T03:06:03;97623.09;;;14.13;100.00
36538;BME280;22545;48.892;9.138;2022-09-13T03:08:28;97625.22;;;14.06;100.00
36538;BME280;22545;48.892;9.138;2022-09-13T03:23:52;97596.41;;;14.12;100.00
36538;BME280;22545;48.892;9.138;2022-09-13T03:29:19;97605.91;;;14.12;100.00
36538;BME280;22545;48.892;9.138;2022-09-13T03:36:47;97626.31;;;14.16;100.00
36538;BME280;22545;48.892;9.138;2022-09-13T03:39:19;97633.16;;;14.18;100.00
36538;BME280;22545;48.892;9.138;2022-09-13T03:41:50;97625.97;;;14.23;100.00
36538;BME280;22545;48.892;9.138;2022-09-13T03:44:17;97638.53;;;14.29;100.00
36538;BME280;22545;48.892;9.138;2022-09-13T03:46:46;97625.41;;;14.18;100.00
36538;BME280;22545;48.892;9.138;2022-09-13T03:49:16;97618.72;;;14.13;100.00
36538;BME280;22545;48.892;9.138;2022-09-13T03:51:46;97609.59;;;14.08;100.00
36538;BME280;22545;48.892;9.138;2022-09-13T03:54:18;97607.03;;;14.08;100.00
36538;BME280;22545;48.892;9.138;2022-09-13T03:57:04;97607.66;;;14.11;100.00
36538;BME280;22545;48.892;9.138;2022-09-13T03:59:29;97607.94;;;14.07;100.00
36538;BME280;22545;48.892;9.138;2022-09-13T04:01:55;97605.72;;;14.15;100.00
36538;BME280;22545;48.892;9.138;2022-09-13T04:04:20;97602.56;;;14.10;100.00
36538;BME280;22545;48.892;9.138;2022-09-13T04:06:45;97599.34;;;14.06;100.00
36538;BME280;22545;48.892;9.138;2022-09-13T04:09:10;97588.25;;;14.04;100.00
36538;BME280;22545;48.892;9.138;2022-09-13T04:11:36;97597.03;;;14.02;100.00
36538;BME280;22545;48.892;9.138;2022-09-13T04:14:04;97590.56;;;13.94;100.00
36538;BME280;22545;48.892;9.138;2022-09-13T04:16:29;97582.22;;;13.89;100.00
36538;BME280;22545;48.892;9.138;2022-09-13T04:18:55;97581.75;;;13.83;100.00
36538;BME280;22545;48.892;9.138;2022-09-13T04:21:20;97588.09;;;13.77;100.00
36538;BME280;22545;48.892;9.138;2022-09-13T04:23:48;97600.56;;;13.70;100.00
36538;BME280;22545;48.892;9.138;2022-09-13T04:26:13;97609.78;;;13.74;100.00
36538;BME280;22545;48.892;9.138;2022-09-13T04:28:39;97616.44;;;13.78;100.00
36538;BME280;22545;48.892;9.138;2022-09-13T04:31:04;97622.38;;;13.80;100.00
36538;BME280;22545;48.892;9.138;2022-09-13T04:33:29;97627.56;;;13.80;100.00
36538;BME280;22545;48.892;9.138;2022-09-13T04:35:58;97629.00;;;13.85;100.00
36538;BME280;22545;48.892;9.138;2022-09-13T04:38:24;97631.25;;;13.91;100.00
36538;BME280;22545;48.892;9.138;2022-09-13T04:40:53;97637.66;;;13.99;100.00
36538;BME280;22545;48.892;9.138;2022-09-13T04:43:18;97637.28;;;14.06;100.00
36538;BME280;22545;48.892;9.138;2022-09-13T04:45:43;97627.97;;;14.03;100.00
36538;BME280;22545;48.892;9.138;2022-09-13T04:48:09;97631.56;;;14.01;100.00
36538;BME280;22545;48.892;9.138;2022-09-13T04:50:35;97627.97;;;14.03;100.00
36538;BME280;22545;48.892;9.138;2022-09-13T04:53:00;97623.72;;;14.02;100.00
36538;BME280;22545;48.892;9.138;2022-09-13T04:55:26;97630.75;;;14.14;100.00
36538;BME280;22545;48.892;9.138;2022-09-13T04:57:52;97635.38;;;14.24;100.00
36538;BME280;22545;48.892;9.138;2022-09-13T05:00:17;97655.88;;;14.27;100.00
36538;BME280;22545;48.892;9.138;2022-09-13T05:02:43;97663.66;;;14.27;100.00
36538;BME280;22545;48.892;9.138;2022-09-13T05:05:08;97652.84;;;14.20;100.00
36538;BME280;22545;48.892;9.138;2022-09-13T05:07:33;97646.19;;;14.16;100.00
36538;BME280;22545;48.892;9.138;2022-09-13T05:09:59;97649.59;;;14.16;100.00
36538;BME280;22545;48.892;9.138;2022-09-13T05:12:24;97636.31;;;14.23;100.00
36538;BME280;22545;48.892;9.138;2022-09-13T05:14:49;97642.41;;;14.36;100.00
36538;BME280;22545;48.892;9.138;2022-09-13T05:17:14;97648.34;;;14.52;100.00
36538;BME280;22545;48.892;9.138;2022-09-13T05:19:39;97638.19;;;14.49;100.00
36538;BME280;22545;48.892;9.138;2022-09-13T05:22:05;97657.50;;;14.58;100.00
36538;BME280;22545;48.892;9.138;2022-09-13T05:24:30;97663.78;;;14.54;100.00
36538;BME280;22545;48.892;9.138;2022-09-13T05:26:55;97649.84;;;14.42;100.00
36538;BME280;22545;48.892;9.138;2022-09-13T05:29:20;97647.22;;;14.28;100.00
36538;BME280;22545;48.892;9.138;2022-09-13T05:31:45;97653.88;;;14.32;100.00
36538;BME280;22545;48.892;9.138;2022-09-13T05:34:12;97657.75;;;14.25;100.00
36538;BME280;22545;48.892;9.138;2022-09-13T05:36:39;97663.84;;;14.24;100.00
36538;BME280;22545;48.892;9.138;2022-09-13T05:39:05;97676.94;;;14.21;100.00
36538;BME280;22545;48.892;9.138;2022-09-13T05:41:30;97680.94;;;14.26;100.00
36538;BME280;22545;48.892;9.138;2022-09-13T05:43:56;97664.94;;;14.20;100.00
36538;BME280;22545;48.892;9.138;2022-09-13T05:46:21;97674.97;;;14.10;100.00
36538;BME280;22545;48.892;9.138;2022-09-13T05:48:46;97660.13;;;14.13;100.00
36538;BME280;22545;48.892;9.138;2022-09-13T05:51:13;97671.66;;;14.08;100.00
36538;BME280;22545;48.892;9.138;2022-09-13T05:53:40;97660.88;;;14.15;100.00
36538;BME280;22545;48.892;9.138;2022-09-13T05:56:06;97654.38;;;14.08;100.00
36538;BME280;22545;48.892;9.138;2022-09-13T05:58:32;97656.59;;;14.00;100.00
36538;BME280;22545;48.892;9.138;2022-09-13T06:00:59;97654.22;;;14.11;100.00
36538;BME280;22545;48.892;9.138;2022-09-13T06:03:24;97653.13;;;14.15;100.00
36538;BME280;22545;48.892;9.138;2022-09-13T06:05:53;97649.63;;;14.31;100.00
36538;BME280;22545;48.892;9.138;2022-09-13T06:08:18;97673.53;;;14.34;100.00
36538;BME280;22545;48.892;9.138;2022-09-13T06:10:51;97667.94;;;14.42;100.00
36538;BME280;22545;48.892;9.138;2022-09-13T06:13:17;97679.03;;;14.44;100.00
36538;BME280;22545;48.892;9.138;2022-09-13T06:15:43;97681.88;;;14.54;100.00
36538;BME280;22545;48.892;9.138;2022-09-13T06:18:08;97681.97;;;14.52;100.00
36538;BME280;22545;48.892;9.138;2022-09-13T06:20:33;97685.06;;;14.59;100.00
36538;BME280;22545;48.892;9.138;2022-09-13T06:22:58;97688.47;;;14.60;100.00
36538;BME280;22545;48.892;9.138;2022-09-13T06:25:26;97689.47;;;14.57;100.00
36538;BME280;22545;48.892;9.138;2022-09-13T06:27:52;97676.22;;;14.63;100.00
36538;BME280;22545;48.892;9.138;2022-09-13T06:30:17;97676.75;;;14.68;100.00
36538;BME280;22545;48.892;9.138;2022-09-13T06:32:43;97672.41;;;14.69;100.00
36538;BME280;22545;48.892;9.138;2022-09-13T06:35:09;97668.38;;;14.65;100.00
36538;BME280;22545;48.892;9.138;2022-09-13T06:37:34;97672.31;;;14.71;100.00
36538;BME280;22545;48.892;9.138;2022-09-13T06:39:59;97667.91;;;14.73;100.00
36538;BME280;22545;48.892;9.138;2022-09-13T06:42:24;97662.75;;;15.14;100.00
36538;BME280;22545;48.892;9.138;2022-09-13T06:44:50;97673.91;;;15.44;100.00
36538;BME280;22545;48.892;9.138;2022-09-13T06:47:15;97671.50;;;15.68;100.00
36538;BME280;22545;48.892;9.138;2022-09-13T06:49:40;97674.56;;;16.15;100.00
36538;BME280;22545;48.892;9.138;2022-09-13T06:52:06;97669.38;;;16.15;100.00
36538;BME280;22545;48.892;9.138;2022-09-13T06:54:31;97664.00;;;16.56;100.00
36538;BME280;22545;48.892;9.138;2022-09-13T06:56:57;97659.63;;;16.83;100.00
36538;BME280;22545;48.892;9.138;2022-09-13T06:59:22;97658.66;;;17.09;100.00
36538;BME280;22545;48.892;9.138;2022-09-13T07:01:47;97654.56;;;16.94;100.00
36538;BME280;22545;48.892;9.138;2022-09-13T07:04:13;97650.16;;;16.81;100.00
36538;BME280;22545;48.892;9.138;2022-09-13T07:06:43;97651.63;;;17.36;100.00
36538;BME280;22545;48.892;9.138;2022-09-13T07:09:13;97646.16;;;17.76;100.00
36538;BME280;22545;48.892;9.138;2022-09-13T07:11:40;97654.41;;;18.40;100.00
36538;BME280;22545;48.892;9.138;2022-09-13T07:14:05;97659.13;;;18.35;100.00
36538;BME280;22545;48.892;9.138;2022-09-13T07:16:33;97650.88;;;17.46;100.00
36538;BME280;22545;48.892;9.138;2022-09-13T07:18:59;97649.38;;;16.94;100.00
36538;BME280;22545;48.892;9.138;2022-09-13T07:21:25;97644.50;;;16.63;100.00
36538;BME280;22545;48.892;9.138;2022-09-13T07:23:51;97645.31;;;16.25;100.00
36538;BME280;22545;48.892;9.138;2022-09-13T07:26:17;97641.19;;;16.49;100.00
36538;BME280;22545;48.892;9.138;2022-09-13T07:28:43;97650.31;;;16.41;100.00
36538;BME280;22545;48.892;9.138;2022-09-13T07:31:10;97649.88;;;16.86;100.00
36538;BME280;22545;48.892;9.138;2022-09-13T07:33:36;97644.03;;;17.32;100.00
36538;BME280;22545;48.892;9.138;2022-09-13T07:36:02;97657.66;;;17.84;100.00
36538;BME280;22545;48.892;9.138;2022-09-13T07:38:31;97650.47;;;18.24;100.00
36538;BME280;22545;48.892;9.138;2022-09-13T07:40:56;97659.72;;;18.28;100.00
36538;BME280;22545;48.892;9.138;2022-09-13T07:43:23;97661.47;;;18.16;100.00
36538;BME280;22545;48.892;9.138;2022-09-13T07:45:54;97657.78;;;18.18;100.00
36538;BME280;22545;48.892;9.138;2022-09-13T07:48:21;97664.28;;;18.13;100.00
36538;BME280;22545;48.892;9.138;2022-09-13T07:50:55;97665.69;;;18.06;100.00
36538;BME280;22545;48.892;9.138;2022-09-13T07:53:20;97656.72;;;18.21;100.00
36538;BME280;22545;48.892;9.138;2022-09-13T07:55:45;97656.53;;;18.35;100.00
36538;BME280;22545;48.892;9.138;2022-09-13T07:58:11;97649.19;;;18.29;100.00
36538;BME280;22545;48.892;9.138;2022-09-13T08:00:36;97649.25;;;18.05;100.00
36538;BME280;22545;48.892;9.138;2022-09-13T08:03:01;97559.13;;;17.68;100.00
36538;BME280;22545;48.892;9.138;2022-09-13T08:05:26;97556.56;;;17.80;100.00
36538;BME280;22545;48.892;9.138;2022-09-13T08:07:51;97637.56;;;18.22;100.00
36538;BME280;22545;48.892;9.138;2022-09-13T08:10:17;97641.84;;;18.34;100.00
36538;BME280;22545;48.892;9.138;2022-09-13T08:12:42;97639.03;;;18.49;100.00
36538;BME280;22545;48.892;9.138;2022-09-13T08:15:07;97627.91;;;18.47;100.00
36538;BME280;22545;48.892;9.138;2022-09-13T08:17:32;97620.69;;;18.73;100.00
36538;BME280;22545;48.892;9.138;2022-09-13T08:19:58;97625.16;;;19.16;100.00
36538;BME280;22545;48.892;9.138;2022-09-13T08:22:23;97624.34;;;19.16;100.00
36538;BME280;22545;48.892;9.138;2022-09-13T08:24:48;97631.22;;;19.60;100.00
36538;BME280;22545;48.892;9.138;2022-09-13T08:27:13;97638.94;;;19.51;100.00
36538;BME280;22545;48.892;9.138;2022-09-13T08:29:38;97645.63;;;19.87;100.00
36538;BME280;22545;48.892;9.138;2022-09-13T08:32:04;97642.28;;;19.85;100.00
36538;BME280;22545;48.892;9.138;2022-09-13T08:34:29;97633.31;;;19.99;100.00
36538;BME280;22545;48.892;9.138;2022-09-13T08:36:54;97625.72;;;19.96;100.00
36538;BME280;22545;48.892;9.138;2022-09-13T08:39:20;97628.25;;;20.49;100.00
36538;BME280;22545;48.892;9.138;2022-09-13T08:41:51;97639.47;;;20.61;100.00
36538;BME280;22545;48.892;9.138;2022-09-13T08:46:50;97640.50;;;21.20;100.00
36538;BME280;22545;48.892;9.138;2022-09-13T08:49:23;97630.19;;;21.09;100.00
36538;BME280;22545;48.892;9.138;2022-09-13T08:51:52;97642.53;;;20.66;100.00
36538;BME280;22545;48.892;9.138;2022-09-13T08:54:18;97632.41;;;20.83;100.00
36538;BME280;22545;48.892;9.138;2022-09-13T08:56:50;97635.38;;;21.60;100.00
36538;BME280;22545;48.892;9.138;2022-09-13T09:01:51;97631.25;;;21.67;100.00
36538;BME280;22545;48.892;9.138;2022-09-13T09:04:35;97627.25;;;21.63;100.00
36538;BME280;22545;48.892;9.138;2022-09-13T09:08:05;97623.94;;;21.61;100.00
36538;BME280;22545;48.892;9.138;2022-09-13T09:09:59;97619.94;;;21.56;100.00
36538;BME280;22545;48.892;9.138;2022-09-13T09:12:35;97618.09;;;21.37;100.00
36538;BME280;22545;48.892;9.138;2022-09-13T09:15:16;97622.69;;;21.55;100.00
36538;BME280;22545;48.892;9.138;2022-09-13T09:22:49;97629.03;;;21.62;100.00
36538;BME280;22545;48.892;9.138;2022-09-13T09:25:15;97639.78;;;21.98;100.00
36538;BME280;22545;48.892;9.138;2022-09-13T09:27:40;97634.22;;;22.21;100.00
36538;BME280;22545;48.892;9.138;2022-09-13T09:30:11;97640.84;;;22.15;100.00
36538;BME280;22545;48.892;9.138;2022-09-13T09:37:33;97614.53;;;22.07;100.00
36538;BME280;22545;48.892;9.138;2022-09-13T09:40:02;97621.69;;;22.34;100.00
36538;BME280;22545;48.892;9.138;2022-09-13T09:42:31;97623.69;;;22.50;100.00
36538;BME280;22545;48.892;9.138;2022-09-13T09:45:03;97612.63;;;22.56;100.00
36538;BME280;22545;48.892;9.138;2022-09-13T09:47:39;97626.78;;;22.16;100.00
36538;BME280;22545;48.892;9.138;2022-09-13T09:50:14;97630.25;;;22.64;100.00
36538;BME280;22545;48.892;9.138;2022-09-13T09:55:12;97636.28;;;22.74;100.00
36538;BME280;22545;48.892;9.138;2022-09-13T09:57:56;97633.22;;;22.79;100.00
36538;BME280;22545;48.892;9.138;2022-09-13T10:00:23;97635.72;;;23.08;100.00
36538;BME280;22545;48.892;9.138;2022-09-13T10:02:50;97645.19;;;24.01;96.73
36538;BME280;22545;48.892;9.138;2022-09-13T10:05:17;97638.63;;;24.23;92.48
36538;BME280;22545;48.892;9.138;2022-09-13T10:07:44;97632.16;;;25.04;88.76
36538;BME280;22545;48.892;9.138;2022-09-13T10:10:20;97639.28;;;24.69;97.42
36538;BME280;22545;48.892;9.138;2022-09-13T10:12:48;97641.25;;;24.49;90.71
36538;BME280;22545;48.892;9.138;2022-09-13T10:15:16;97643.13;;;24.57;94.62
36538;BME280;22545;48.892;9.138;2022-09-13T10:17:45;97635.13;;;24.59;89.93
36538;BME280;22545;48.892;9.138;2022-09-13T10:20:24;97633.34;;;25.77;83.05
36538;BME280;22545;48.892;9.138;2022-09-13T10:25:35;97626.47;;;25.17;75.00
36538;BME280;22545;48.892;9.138;2022-09-13T10:28:01;97624.09;;;25.82;74.20
36538;BME280;22545;48.892;9.138;2022-09-13T10:30:35;97618.38;;;26.03;70.22
36538;BME280;22545;48.892;9.138;2022-09-13T10:33:02;97611.56;;;26.33;63.65
36538;BME280;22545;48.892;9.138;2022-09-13T10:35:28;97614.25;;;26.17;66.11
36538;BME280;22545;48.892;9.138;2022-09-13T10:37:53;97613.25;;;25.60;70.82
36538;BME280;22545;48.892;9.138;2022-09-13T10:42:51;97611.19;;;25.29;68.71
36538;BME280;22545;48.892;9.138;2022-09-13T10:45:20;97606.97;;;26.27;75.77
36538;BME280;22545;48.892;9.138;2022-09-13T10:47:47;97608.97;;;26.08;65.40
36538;BME280;22545;48.892;9.138;2022-09-13T10:50:18;97600.59;;;26.05;63.94
36538;BME280;22545;48.892;9.138;2022-09-13T10:52:45;97602.03;;;25.91;70.04
36538;BME280;22545;48.892;9.138;2022-09-13T10:57:49;97600.09;;;26.01;60.00
36538;BME280;22545;48.892;9.138;2022-09-13T11:00:15;97593.81;;;26.19;58.54
36538;BME280;22545;48.892;9.138;2022-09-13T11:05:15;97594.94;;;26.32;54.46
36538;BME280;22545;48.892;9.138;2022-09-13T11:07:57;97595.13;;;26.23;56.76
36538;BME280;22545;48.892;9.138;2022-09-13T11:10:31;97599.44;;;26.16;52.62
36538;BME280;22545;48.892;9.138;2022-09-13T11:13:02;97590.72;;;26.15;53.45
36538;BME280;22545;48.892;9.138;2022-09-13T11:41:31;97607.97;;;26.26;70.20
36538;BME280;22545;48.892;9.138;2022-09-13T11:52:02;97601.22;;;25.74;64.12
36538;BME280;22545;48.892;9.138;2022-09-13T11:54:38;97596.59;;;25.51;63.09
36538;BME280;22545;48.892;9.138;2022-09-13T11:57:10;97600.66;;;25.21;67.09
36538;BME280;22545;48.892;9.138;2022-09-13T11:59:53;97589.19;;;25.30;62.87
36538;BME280;22545;48.892;9.138;2022-09-13T12:05:14;97579.84;;;25.69;55.05
36538;BME280;22545;48.892;9.138;2022-09-13T12:07:43;97583.78;;;25.65;56.08
36538;BME280;22545;48.892;9.138;2022-09-13T12:10:15;97584.91;;;25.46;53.01
36538;BME280;22545;48.892;9.138;2022-09-13T12:12:41;97603.19;;;25.39;55.23
36538;BME280;22545;48.892;9.138;2022-09-13T12:15:16;97589.22;;;25.63;57.00
36538;BME280;22545;48.892;9.138;2022-09-13T12:17:44;97584.59;;;25.65;57.50
36538;BME280;22545;48.892;9.138;2022-09-13T12:20:17;97575.03;;;25.31;57.38
36538;BME280;22545;48.892;9.138;2022-09-13T12:22:44;97569.63;;;25.57;62.39
36538;BME280;22545;48.892;9.138;2022-09-13T12:25:17;97575.06;;;25.48;63.25
36538;BME280;22545;48.892;9.138;2022-09-13T12:32:39;97569.28;;;25.60;60.83
36538;BME280;22545;48.892;9.138;2022-09-13T12:35:07;97564.84;;;25.86;56.84
36538;BME280;22545;48.892;9.138;2022-09-13T12:45:18;97534.72;;;25.80;51.87
36538;BME280;22545;48.892;9.138;2022-09-13T12:47:58;97530.94;;;25.99;49.95
36538;BME280;22545;48.892;9.138;2022-09-13T12:53:02;97515.34;;;26.37;47.27
36538;BME280;22545;48.892;9.138;2022-09-13T13:03:30;97500.00;;;25.27;52.10
36538;BME280;22545;48.892;9.138;2022-09-13T13:06:10;97495.91;;;25.49;49.58
36538;BME280;22545;48.892;9.138;2022-09-13T13:08:39;97485.88;;;25.61;48.92
36538;BME280;22545;48.892;9.138;2022-09-13T13:11:12;97487.00;;;25.75;48.86
36538;BME280;22545;48.892;9.138;2022-09-13T13:13:45;97486.81;;;25.76;49.51
36538;BME280;22545;48.892;9.138;2022-09-13T13:16:27;97491.94;;;25.78;49.11
36538;BME280;22545;48.892;9.138;2022-09-13T13:18:56;97490.78;;;25.81;48.38
36538;BME280;22545;48.892;9.138;2022-09-13T13:24:55;97487.66;;;25.85;50.84
36538;BME280;22545;48.892;9.138;2022-09-13T13:26:50;97479.41;;;25.88;48.06
36538;BME280;22545;48.892;9.138;2022-09-13T13:39:03;97485.78;;;26.10;46.37
36538;BME280;22545;48.892;9.138;2022-09-13T13:43:58;97467.03;;;26.05;44.19
36538;BME280;22545;48.892;9.138;2022-09-13T13:46:25;97458.31;;;25.88;43.92
36538;BME280;22545;48.892;9.138;2022-09-13T13:48:50;97462.81;;;25.63;44.34
36538;BME280;22545;48.892;9.138;2022-09-13T13:51:20;97452.94;;;25.73;44.95
36538;BME280;22545;48.892;9.138;2022-09-13T13:53:50;97455.72;;;25.72;44.73
36538;BME280;22545;48.892;9.138;2022-09-13T13:56:27;97453.94;;;25.64;48.80
36538;BME280;22545;48.892;9.138;2022-09-13T13:58:55;97385.53;;;25.15;53.07
36538;BME280;22545;48.892;9.138;2022-09-13T14:01:24;97460.34;;;25.53;51.33
36538;BME280;22545;48.892;9.138;2022-09-13T14:06:27;97458.38;;;25.72;46.06
36538;BME280;22545;48.892;9.138;2022-09-13T14:09:11;97460.81;;;25.65;47.02
36538;BME280;22545;48.892;9.138;2022-09-13T14:14:40;97454.28;;;25.53;49.25
36538;BME280;22545;48.892;9.138;2022-09-13T14:22:15;97443.59;;;25.46;49.26
36538;BME280;22545;48.892;9.138;2022-09-13T14:24:44;97450.47;;;25.64;49.72
36538;BME280;22545;48.892;9.138;2022-09-13T14:27:14;97451.63;;;25.61;51.67
36538;BME280;22545;48.892;9.138;2022-09-13T14:29:43;97446.69;;;25.66;50.09
36538;BME280;22545;48.892;9.138;2022-09-13T14:32:10;97450.78;;;25.77;47.29
36538;BME280;22545;48.892;9.138;2022-09-13T14:34:38;97438.78;;;25.74;50.41
36538;BME280;22545;48.892;9.138;2022-09-13T14:37:05;97438.47;;;25.61;49.04
36538;BME280;22545;48.892;9.138;2022-09-13T14:39:31;97434.03;;;25.53;48.81
36538;BME280;22545;48.892;9.138;2022-09-13T14:42:18;97433.03;;;25.63;50.09
36538;BME280;22545;48.892;9.138;2022-09-13T14:44:45;97426.97;;;25.54;44.89
36538;BME280;22545;48.892;9.138;2022-09-13T14:47:14;97421.63;;;25.78;43.21
36538;BME280;22545;48.892;9.138;2022-09-13T14:49:42;97427.50;;;25.97;43.47
36538;BME280;22545;48.892;9.138;2022-09-13T14:52:25;97423.06;;;25.89;45.92
36538;BME280;22545;48.892;9.138;2022-09-13T14:54:53;97423.09;;;25.81;47.23
36538;BME280;22545;48.892;9.138;2022-09-13T14:57:31;97427.28;;;25.67;46.80
36538;BME280;22545;48.892;9.138;2022-09-13T15:00:05;97417.06;;;25.56;45.69
36538;BME280;22545;48.892;9.138;2022-09-13T15:02:37;97410.69;;;25.42;44.71
36538;BME280;22545;48.892;9.138;2022-09-13T15:05:04;97407.75;;;25.37;46.47
36538;BME280;22545;48.892;9.138;2022-09-13T15:07:32;97406.91;;;25.44;46.83
36538;BME280;22545;48.892;9.138;2022-09-13T15:12:52;97394.91;;;25.17;44.99
36538;BME280;22545;48.892;9.138;2022-09-13T15:17:50;97378.31;;;25.08;42.89
36538;BME280;22545;48.892;9.138;2022-09-13T15:20:15;97378.13;;;25.18;42.07
36538;BME280;22545;48.892;9.138;2022-09-13T15:22:41;97368.59;;;25.17;40.99
36538;BME280;22545;48.892;9.138;2022-09-13T15:25:16;97366.31;;;25.14;41.67
36538;BME280;22545;48.892;9.138;2022-09-13T15:27:43;97369.91;;;24.97;41.92
36538;BME280;22545;48.892;9.138;2022-09-13T15:30:19;97367.78;;;25.00;40.66
36538;BME280;22545;48.892;9.138;2022-09-13T15:32:44;97367.44;;;25.03;40.02
36538;BME280;22545;48.892;9.138;2022-09-13T15:35:23;97366.81;;;24.93;41.51
36538;BME280;22545;48.892;9.138;2022-09-13T15:38:00;97365.97;;;25.17;39.72
36538;BME280;22545;48.892;9.138;2022-09-13T15:40:27;97357.56;;;25.14;39.57
36538;BME280;22545;48.892;9.138;2022-09-13T15:42:52;97349.38;;;25.08;39.59
36538;BME280;22545;48.892;9.138;2022-09-13T15:45:18;97345.09;;;25.16;39.60
36538;BME280;22545;48.892;9.138;2022-09-13T15:47:48;97338.66;;;25.10;39.14
36538;BME280;22545;48.892;9.138;2022-09-13T15:50:18;97338.19;;;24.98;40.53
36538;BME280;22545;48.892;9.138;2022-09-13T15:52:44;97338.84;;;25.00;39.93
36538;BME280;22545;48.892;9.138;2022-09-13T15:55:10;97334.59;;;24.99;40.42
36538;BME280;22545;48.892;9.138;2022-09-13T15:57:35;97330.28;;;24.90;40.35
36538;BME280;22545;48.892;9.138;2022-09-13T16:00:00;97328.50;;;24.90;40.66
36538;BME280;22545;48.892;9.138;2022-09-13T16:02:27;97325.53;;;24.94;40.30